createdAt,value
2024-05-09T00:00:10.480Z,99.99
2024-05-09T00:01:08.151Z,99.99
2024-05-09T00:02:08.093Z,99.99
2024-05-09T00:03:08.997Z,99.99
2024-05-09T00:04:07.927Z,99.99
2024-05-09T00:05:07.926Z,99.99
2024-05-09T00:06:07.829Z,99.99
2024-05-09T00:07:07.624Z,99.99
2024-05-09T00:08:07.602Z,99.99
2024-05-09T00:09:07.447Z,99.99
2024-05-09T00:10:11.797Z,99.99
2024-05-09T00:29:05.861Z,99.99
2024-05-09T00:30:07.305Z,99.99
2024-05-09T00:32:03.858Z,99.99
2024-05-09T00:33:04.185Z,99.99
2024-05-09T00:34:03.603Z,99.99
2024-05-09T00:35:03.398Z,99.99
2024-05-09T00:36:03.298Z,99.99
2024-05-09T00:37:03.233Z,99.99
2024-05-09T00:38:03.475Z,99.99
2024-05-09T00:39:03.055Z,99.99
2024-05-09T00:40:03.560Z,99.99
2024-05-09T00:41:02.970Z,99.99
2024-05-09T00:42:02.810Z,99.99
2024-05-09T00:43:02.731Z,99.99
2024-05-09T00:44:02.738Z,99.99
2024-05-09T00:45:02.562Z,99.99
2024-05-09T00:46:02.479Z,99.99
2024-05-09T00:47:02.800Z,99.99
2024-05-09T00:49:02.413Z,99.99
2024-05-09T00:52:02.640Z,99.99
2024-05-09T00:55:02.670Z,99.99
2024-05-09T00:57:01.629Z,99.99
2024-05-09T00:59:01.500Z,99.99
2024-05-09T01:00:01.395Z,99.99
2024-05-09T01:01:01.673Z,99.99
2024-05-09T01:02:01.296Z,99.99
2024-05-09T01:03:01.358Z,99.99
2024-05-09T01:04:01.227Z,99.99
2024-05-09T01:07:01.252Z,99.99
2024-05-09T01:08:00.779Z,99.99
2024-05-09T01:09:00.701Z,99.99
2024-05-09T01:10:00.892Z,99.99
2024-05-09T01:12:00.624Z,99.99
2024-05-09T01:13:00.422Z,99.99
2024-05-09T01:14:00.477Z,99.99
2024-05-09T01:18:00.593Z,99.99
2024-05-09T01:41:14.016Z,99.99
2024-05-09T01:42:13.740Z,99.99
2024-05-09T01:43:13.480Z,99.99
2024-05-09T01:44:13.613Z,99.99
2024-05-09T01:45:13.534Z,99.99
2024-05-09T01:46:13.460Z,99.99
2024-05-09T01:47:13.290Z,99.99
2024-05-09T01:48:13.305Z,99.99
2024-05-09T01:49:13.179Z,99.99
2024-05-09T01:50:16.389Z,99.99
2024-05-09T01:52:13.071Z,99.99
2024-05-09T01:53:13.615Z,99.99
2024-05-09T01:54:12.767Z,99.99
2024-05-09T01:55:12.715Z,99.99
2024-05-09T01:57:12.731Z,99.99
2024-05-09T01:59:12.251Z,99.99
2024-05-09T02:00:34.148Z,99.99
2024-05-09T02:01:12.047Z,99.99
2024-05-09T02:02:12.494Z,99.99
2024-05-09T02:03:15.188Z,99.99
2024-05-09T02:06:11.978Z,99.99
2024-05-09T02:07:12.128Z,99.99
2024-05-09T02:08:12.199Z,99.99
2024-05-09T02:09:53.811Z,99.99
2024-05-09T02:10:53.859Z,99.99
2024-05-09T02:11:53.709Z,99.99
2024-05-09T02:12:53.576Z,99.99
2024-05-09T02:13:53.485Z,99.99
2024-05-09T02:14:53.407Z,99.99
2024-05-09T02:15:53.336Z,99.99
2024-05-09T02:16:53.262Z,99.99
2024-05-09T02:17:53.502Z,99.99
2024-05-09T02:18:53.121Z,99.99
2024-05-09T02:19:53.012Z,99.99
2024-05-09T02:20:52.947Z,99.99
2024-05-09T02:21:52.832Z,99.99
2024-05-09T02:22:52.837Z,99.99
2024-05-09T02:23:52.666Z,99.99
2024-05-09T02:24:52.586Z,99.99
2024-05-09T02:25:52.549Z,99.99
2024-05-09T02:26:52.422Z,99.99
2024-05-09T02:27:52.338Z,99.99
2024-05-09T02:28:52.333Z,99.99
2024-05-09T02:29:52.179Z,99.99
2024-05-09T02:30:52.494Z,99.99
2024-05-09T02:31:52.103Z,99.99
2024-05-09T02:32:52.180Z,99.99
2024-05-09T02:33:52.066Z,99.99
2024-05-09T02:34:51.817Z,99.99
2024-05-09T02:35:51.714Z,99.99
2024-05-09T02:36:51.601Z,99.99
2024-05-09T02:37:51.541Z,99.99
2024-05-09T02:38:51.440Z,99.99
2024-05-09T02:39:51.354Z,99.99
2024-05-09T02:40:51.318Z,99.99
2024-05-09T02:41:51.199Z,99.99
2024-05-09T02:42:51.110Z,99.99
2024-05-09T02:43:51.087Z,99.99
2024-05-09T02:44:50.966Z,99.99
2024-05-09T02:46:38.376Z,99.99
2024-05-09T02:47:38.774Z,99.99
2024-05-09T02:48:39.028Z,99.99
2024-05-09T02:49:38.205Z,99.99
2024-05-09T02:50:39.883Z,99.99
2024-05-09T02:51:38.233Z,99.99
2024-05-09T02:52:38.282Z,99.99
2024-05-09T02:53:37.824Z,99.99
2024-05-09T02:54:37.720Z,99.99
2024-05-09T02:56:37.586Z,99.99
2024-05-09T02:58:37.356Z,99.99
2024-05-09T02:59:37.337Z,99.99
2024-05-09T03:00:40.602Z,99.99
2024-05-09T03:01:37.287Z,99.99
2024-05-09T03:02:37.122Z,99.99
2024-05-09T03:03:37.538Z,99.99
2024-05-09T03:04:36.961Z,99.99
2024-05-09T03:05:37.199Z,99.99
2024-05-09T03:06:36.899Z,99.99
2024-05-09T03:07:39.703Z,99.99
2024-05-09T03:08:36.558Z,99.99
2024-05-09T03:09:36.441Z,99.99
2024-05-09T03:10:38.407Z,99.99
2024-05-09T03:11:36.367Z,99.99
2024-05-09T03:12:39.056Z,99.99
2024-05-09T03:13:36.116Z,99.99
2024-05-09T03:14:36.067Z,99.99
2024-05-09T03:15:36.280Z,99.99
2024-05-09T03:16:36.087Z,99.99
2024-05-09T03:17:36.057Z,99.99
2024-05-09T03:18:35.817Z,99.99
2024-05-09T03:19:35.651Z,99.99
2024-05-09T03:20:36.744Z,99.99
2024-05-09T03:21:35.879Z,99.99
2024-05-09T03:22:35.559Z,99.99
2024-05-09T03:23:35.317Z,99.99
2024-05-09T03:24:35.442Z,99.99
2024-05-09T03:25:35.120Z,99.99
2024-05-09T03:26:35.048Z,99.99
2024-05-09T03:28:35.102Z,99.99
2024-05-09T03:29:35.803Z,99.99
2024-05-09T03:30:39.800Z,99.99
2024-05-09T03:31:35.061Z,99.99
2024-05-09T03:33:35.212Z,99.99
2024-05-09T03:34:34.399Z,99.99
2024-05-09T03:35:35.792Z,99.99
2024-05-09T03:36:34.233Z,99.99
2024-05-09T03:38:34.315Z,99.99
2024-05-09T03:39:35.195Z,99.99
2024-05-09T03:41:34.046Z,99.99
2024-05-09T03:47:33.408Z,99.99
2024-05-09T03:48:33.274Z,99.99
2024-05-09T03:49:33.211Z,99.99
2024-05-09T03:50:35.628Z,99.99
2024-05-09T03:51:32.964Z,99.99
2024-05-09T03:52:32.851Z,99.99
2024-05-09T03:53:32.898Z,99.99
2024-05-09T03:54:32.685Z,99.99
2024-05-09T03:55:34.016Z,99.99
2024-05-09T03:56:32.602Z,99.99
2024-05-09T03:57:32.440Z,99.99
2024-05-09T03:58:32.500Z,99.99
2024-05-09T03:59:32.484Z,99.99
2024-05-09T04:00:37.930Z,99.99
2024-05-09T04:01:32.287Z,99.99
2024-05-09T04:02:32.162Z,99.99
2024-05-09T04:03:32.029Z,99.99
2024-05-09T04:04:32.022Z,99.99
2024-05-09T04:05:31.906Z,99.99
2024-05-09T04:06:31.728Z,99.99
2024-05-09T04:08:44.230Z,99.99
2024-05-09T04:09:44.061Z,99.99
2024-05-09T04:10:44.147Z,99.99
2024-05-09T04:11:43.982Z,99.99
2024-05-09T04:12:43.826Z,99.99
2024-05-09T04:13:43.850Z,99.99
2024-05-09T04:14:43.630Z,99.99
2024-05-09T04:15:43.547Z,99.99
2024-05-09T04:16:44.091Z,99.99
2024-05-09T04:17:43.558Z,99.99
2024-05-09T04:18:43.418Z,99.99
2024-05-09T04:19:43.516Z,99.99
2024-05-09T04:20:43.181Z,99.99
2024-05-09T04:22:25.520Z,99.99
2024-05-09T04:23:25.464Z,99.99
2024-05-09T04:24:26.163Z,99.99
2024-05-09T04:25:25.267Z,99.99
2024-05-09T04:26:25.264Z,99.99
2024-05-09T04:27:25.106Z,99.99
2024-05-09T04:28:25.012Z,99.99
2024-05-09T04:29:25.045Z,99.99
2024-05-09T04:30:34.474Z,99.99
2024-05-09T04:31:24.773Z,99.99
2024-05-09T04:32:24.814Z,99.99
2024-05-09T04:33:24.987Z,99.99
2024-05-09T04:34:24.629Z,99.99
2024-05-09T04:35:24.658Z,99.99
2024-05-09T04:36:24.351Z,99.99
2024-05-09T04:37:24.626Z,99.99
2024-05-09T04:38:24.699Z,99.99
2024-05-09T04:39:24.096Z,99.99
2024-05-09T04:40:31.411Z,99.99
2024-05-09T04:41:23.979Z,99.99
2024-05-09T04:42:23.842Z,99.99
2024-05-09T04:43:23.755Z,99.99
2024-05-09T04:44:23.726Z,99.99
2024-05-09T04:45:23.588Z,99.99
2024-05-09T04:46:23.501Z,99.99
2024-05-09T04:47:23.584Z,99.99
2024-05-09T04:48:23.462Z,99.99
2024-05-09T04:49:23.382Z,99.99
2024-05-09T04:50:30.310Z,99.99
2024-05-09T04:51:23.085Z,99.99
2024-05-09T04:52:23.013Z,99.99
2024-05-09T04:53:22.995Z,99.99
2024-05-09T04:54:33.502Z,99.99
2024-05-09T04:55:22.750Z,99.99
2024-05-09T04:56:22.758Z,99.99
2024-05-09T04:57:22.578Z,99.99
2024-05-09T04:58:22.491Z,99.99
2024-05-09T04:59:22.482Z,99.99
2024-05-09T05:00:31.826Z,99.99
2024-05-09T05:01:22.418Z,99.99
2024-05-09T05:02:22.243Z,99.99
2024-05-09T05:03:22.360Z,99.99
2024-05-09T05:05:21.920Z,99.99
2024-05-09T05:06:21.827Z,99.99
2024-05-09T05:07:21.833Z,99.99
2024-05-09T05:08:22.457Z,99.99
2024-05-09T05:09:22.725Z,99.99
2024-05-09T05:10:29.474Z,99.99
2024-05-09T05:11:21.506Z,99.99
2024-05-09T05:12:21.446Z,99.99
2024-05-09T05:13:22.575Z,99.99
2024-05-09T05:14:21.233Z,99.99
2024-05-09T05:16:21.035Z,99.99
2024-05-09T05:17:21.066Z,99.99
2024-05-09T05:19:33.622Z,99.99
2024-05-09T05:21:20.985Z,99.99
2024-05-09T05:22:20.529Z,99.99
2024-05-09T05:23:20.667Z,99.99
2024-05-09T05:24:21.013Z,99.99
2024-05-09T05:25:20.240Z,99.99
2024-05-09T05:26:20.318Z,99.99
2024-05-09T05:27:20.117Z,99.99
2024-05-09T05:28:20.031Z,99.99
2024-05-09T05:29:20.889Z,99.99
2024-05-09T05:30:25.217Z,99.99
2024-05-09T05:31:19.821Z,99.99
2024-05-09T05:32:19.947Z,99.99
2024-05-09T05:33:20.307Z,99.99
2024-05-09T05:49:19.282Z,99.99
2024-05-09T05:59:17.950Z,99.99
2024-05-09T06:00:28.520Z,99.99
2024-05-09T06:23:30.269Z,99.99
2024-05-09T06:24:30.486Z,99.99
2024-05-09T06:25:30.031Z,99.99
2024-05-09T06:27:29.850Z,99.99
2024-05-09T06:28:29.764Z,99.99
2024-05-09T06:29:30.580Z,99.99
2024-05-09T06:30:37.086Z,99.99
2024-05-09T06:31:29.526Z,99.99
2024-05-09T06:32:29.553Z,99.99
2024-05-09T06:33:29.722Z,99.99
2024-05-09T06:34:29.869Z,99.99
2024-05-09T06:35:29.568Z,99.99
2024-05-09T06:36:29.540Z,99.99
2024-05-09T06:37:29.352Z,99.99
2024-05-09T06:38:29.063Z,99.99
2024-05-09T06:39:28.893Z,99.99
2024-05-09T06:40:36.444Z,99.99
2024-05-09T06:41:28.892Z,99.99
2024-05-09T06:42:28.641Z,99.99
2024-05-09T06:43:29.166Z,99.99
2024-05-09T06:44:28.610Z,99.99
2024-05-09T06:45:28.476Z,99.99
2024-05-09T06:46:28.630Z,99.99
2024-05-09T06:47:28.489Z,99.99
2024-05-09T06:48:28.236Z,99.99
2024-05-09T06:49:28.189Z,99.99
2024-05-09T06:50:31.471Z,99.99
2024-05-09T06:51:27.897Z,99.99
2024-05-09T06:52:27.820Z,99.99
2024-05-09T06:53:27.788Z,99.99
2024-05-09T06:54:27.653Z,99.99
2024-05-09T06:55:27.585Z,99.99
2024-05-09T06:56:27.536Z,99.99
2024-05-09T06:57:27.449Z,99.99
2024-05-09T06:58:27.343Z,99.99
2024-05-09T06:59:28.031Z,99.99
2024-05-09T07:00:35.343Z,99.99
2024-05-09T07:01:27.154Z,99.99
2024-05-09T07:02:27.164Z,99.99
2024-05-09T07:03:27.136Z,99.99
2024-05-09T07:04:26.989Z,99.99
2024-05-09T07:05:26.978Z,99.99
2024-05-09T07:06:26.705Z,99.99
2024-05-09T07:07:26.641Z,99.99
2024-05-09T07:08:26.571Z,99.99
2024-05-09T07:09:26.468Z,99.99
2024-05-09T07:11:26.573Z,99.99
2024-05-09T07:12:26.657Z,99.99
2024-05-09T07:13:26.149Z,99.99
2024-05-09T07:14:26.396Z,99.99
2024-05-09T07:15:26.050Z,99.99
2024-05-09T07:16:26.153Z,99.99
2024-05-09T07:17:26.102Z,99.99
2024-05-09T07:18:25.909Z,99.99
2024-05-09T07:19:25.831Z,99.99
2024-05-09T07:20:33.786Z,99.99
2024-05-09T07:21:26.157Z,99.99
2024-05-09T07:22:25.437Z,99.99
2024-05-09T07:23:25.422Z,99.99
2024-05-09T07:24:25.283Z,99.99
2024-05-09T07:25:25.204Z,99.99
2024-05-09T07:26:25.195Z,99.99
2024-05-09T07:27:25.053Z,99.99
2024-05-09T07:28:24.967Z,99.99
2024-05-09T07:29:24.926Z,99.99
2024-05-09T07:30:44.028Z,99.99
2024-05-09T07:31:24.740Z,99.99
2024-05-09T07:32:25.345Z,99.99
2024-05-09T07:33:26.244Z,99.99
2024-05-09T07:34:30.984Z,99.99
2024-05-09T07:35:37.775Z,99.99
2024-05-09T07:36:24.347Z,99.99
2024-05-09T07:37:24.568Z,99.82
2024-05-09T07:38:37.233Z,99.91
2024-05-09T07:39:24.204Z,99.99
2024-05-09T07:40:37.206Z,99.63
2024-05-09T07:41:23.997Z,99.91
2024-05-09T07:42:23.868Z,99.63
2024-05-09T07:43:30.054Z,99.99
2024-05-09T07:44:23.787Z,99.99
2024-05-09T07:45:40.575Z,99.99
2024-05-09T07:48:49.056Z,99.99
2024-05-09T07:53:30.316Z,98.52
2024-05-09T07:53:39.572Z,99.99
2024-05-09T07:54:23.148Z,99.99
2024-05-09T07:55:23.084Z,98.14
2024-05-09T07:59:22.580Z,97.85
2024-05-09T08:01:23.089Z,96.70
2024-05-09T08:02:22.934Z,96.61
2024-05-09T08:04:25.083Z,99.91
2024-05-09T08:05:22.190Z,99.99
2024-05-09T08:06:22.340Z,99.99
2024-05-09T08:07:22.410Z,97.61
2024-05-09T08:09:21.898Z,98.19
2024-05-09T08:12:21.571Z,93.49
2024-05-09T08:13:21.840Z,93.40
2024-05-09T08:14:21.615Z,94.17
2024-05-09T08:16:21.849Z,95.41
2024-05-09T08:17:21.407Z,94.54
2024-05-09T08:18:21.413Z,94.07
2024-05-09T08:19:21.104Z,94.64
2024-05-09T08:20:30.137Z,95.12
2024-05-09T08:21:20.863Z,94.93
2024-05-09T08:23:20.710Z,91.67
2024-05-09T08:24:20.848Z,92.44
2024-05-09T08:25:20.785Z,92.24
2024-05-09T08:26:20.438Z,91.09
2024-05-09T08:27:20.387Z,90.71
2024-05-09T08:28:20.344Z,90.04
2024-05-09T08:29:20.422Z,90.04
2024-05-09T08:30:25.393Z,90.71
2024-05-09T08:31:20.153Z,90.71
2024-05-09T08:32:20.017Z,91.24
2024-05-09T08:33:20.313Z,96.13
2024-05-09T08:35:19.829Z,95.03
2024-05-09T08:37:23.204Z,89.65
2024-05-09T08:38:19.509Z,90.42
2024-05-09T08:39:19.674Z,91.66
2024-05-09T08:41:19.522Z,88.59
2024-05-09T08:44:19.080Z,88.65
2024-05-09T08:46:19.253Z,87.92
2024-05-09T08:48:19.798Z,91.38
2024-05-09T08:49:18.869Z,90.80
2024-05-09T08:52:02.489Z,87.15
2024-05-09T08:53:02.408Z,87.77
2024-05-09T08:54:02.315Z,87.39
2024-05-09T08:55:02.376Z,86.72
2024-05-09T08:56:02.173Z,87.39
2024-05-09T08:57:54.605Z,85.47
2024-05-09T08:58:54.497Z,80.76
2024-05-09T08:59:54.430Z,78.75
2024-05-09T09:00:54.423Z,80.57
2024-05-09T09:01:54.338Z,80.28
2024-05-09T09:02:54.264Z,80.47
2024-05-09T09:03:54.297Z,77.46
2024-05-09T09:04:54.152Z,77.69
2024-05-09T09:05:54.030Z,77.88
2024-05-09T09:06:57.125Z,76.92
2024-05-09T09:07:53.826Z,77.59
2024-05-09T09:08:53.733Z,78.23
2024-05-09T09:09:53.711Z,78.94
2024-05-09T09:10:53.676Z,80.63
2024-05-09T09:11:53.609Z,81.59
2024-05-09T09:12:53.477Z,77.17
2024-05-09T09:13:53.343Z,77.94
2024-05-09T09:14:53.275Z,77.46
2024-05-09T09:15:53.219Z,77.36
2024-05-09T09:16:53.117Z,77.36
2024-05-09T09:17:53.175Z,79.28
2024-05-09T09:18:53.329Z,77.46
2024-05-09T09:19:52.964Z,79.42
2024-05-09T09:20:52.813Z,80.09
2024-05-09T09:21:52.786Z,79.42
2024-05-09T09:23:52.856Z,75.87
2024-05-09T09:24:52.593Z,77.11
2024-05-09T09:25:52.580Z,79.52
2024-05-09T09:26:52.354Z,81.24
2024-05-09T09:27:52.305Z,82.01
2024-05-09T09:28:56.286Z,82.68
2024-05-09T09:29:52.131Z,81.05
2024-05-09T09:30:52.162Z,79.52
2024-05-09T09:31:51.982Z,80.66
2024-05-09T09:32:52.035Z,78.88
2024-05-09T09:33:52.132Z,77.83
2024-05-09T09:34:51.881Z,76.92
2024-05-09T09:37:09.489Z,80.13
2024-05-09T09:38:09.098Z,80.32
2024-05-09T09:39:09.018Z,81.96
2024-05-09T09:40:10.752Z,79.46
2024-05-09T09:41:08.931Z,78.84
2024-05-09T09:42:08.787Z,80.09
2024-05-09T09:43:08.884Z,82.10
2024-05-09T09:44:08.638Z,80.57
2024-05-09T09:45:08.560Z,82.10
2024-05-09T09:46:11.697Z,82.68
2024-05-09T09:47:08.649Z,81.53
2024-05-09T09:48:09.030Z,80.61
2024-05-09T09:49:08.578Z,80.99
2024-05-09T09:50:14.220Z,82.05
2024-05-09T09:51:08.160Z,80.71
2024-05-09T09:52:10.995Z,82.82
2024-05-09T09:53:07.954Z,83.87
2024-05-09T09:55:08.585Z,80.36
2024-05-09T09:59:13.403Z,80.46
2024-05-09T10:00:17.417Z,80.17
2024-05-09T10:01:13.372Z,79.30
2024-05-09T10:02:13.358Z,79.69
2024-05-09T10:03:13.258Z,78.25
2024-05-09T10:04:13.532Z,77.58
2024-05-09T10:05:13.026Z,79.98
2024-05-09T10:06:12.919Z,79.46
2024-05-09T10:07:12.845Z,80.17
2024-05-09T10:08:12.736Z,78.02
2024-05-09T10:09:12.641Z,77.83
2024-05-09T10:10:16.249Z,79.17
2024-05-09T10:11:12.530Z,77.53
2024-05-09T10:12:12.668Z,78.78
2024-05-09T10:13:12.362Z,78.21
2024-05-09T10:14:12.269Z,79.27
2024-05-09T10:15:12.189Z,77.96
2024-05-09T10:16:12.469Z,77.67
2024-05-09T10:17:12.217Z,78.53
2024-05-09T10:18:12.129Z,76.81
2024-05-09T10:19:11.947Z,77.58
2024-05-09T10:20:18.262Z,79.60
2024-05-09T10:21:11.740Z,79.60
2024-05-09T10:22:11.750Z,79.79
2024-05-09T10:23:11.590Z,77.00
2024-05-09T10:24:11.514Z,77.00
2024-05-09T10:25:11.499Z,77.09
2024-05-09T10:26:11.372Z,77.92
2024-05-09T10:27:11.298Z,76.96
2024-05-09T10:28:11.387Z,79.07
2024-05-09T10:29:11.598Z,78.40
2024-05-09T10:30:17.715Z,79.36
2024-05-09T10:31:11.542Z,80.13
2024-05-09T10:32:11.130Z,79.55
2024-05-09T10:33:11.063Z,79.99
2024-05-09T10:34:10.954Z,79.42
2024-05-09T10:35:10.912Z,80.22
2024-05-09T10:36:10.617Z,82.92
2024-05-09T10:37:10.587Z,80.61
2024-05-09T10:38:10.461Z,79.11
2024-05-09T10:39:10.387Z,80.17
2024-05-09T10:40:17.239Z,82.29
2024-05-09T10:41:10.245Z,78.63
2024-05-09T10:42:10.157Z,77.29
2024-05-09T10:43:10.123Z,80.36
2024-05-09T10:44:10.313Z,81.23
2024-05-09T10:45:09.934Z,81.42
2024-05-09T10:46:10.174Z,79.60
2024-05-09T10:47:09.805Z,79.11
2024-05-09T10:48:09.796Z,77.00
2024-05-09T10:49:09.776Z,76.77
2024-05-09T10:50:18.348Z,79.94
2024-05-09T10:51:09.478Z,78.50
2024-05-09T10:52:09.495Z,78.21
2024-05-09T10:53:09.329Z,77.83
2024-05-09T10:54:09.265Z,79.94
2024-05-09T10:55:09.233Z,79.65
2024-05-09T10:56:09.215Z,79.65
2024-05-09T10:57:09.443Z,78.44
2024-05-09T10:58:09.048Z,78.25
2024-05-09T10:59:09.129Z,76.00
2024-05-09T11:00:18.969Z,76.04
2024-05-09T11:01:08.941Z,76.81
2024-05-09T11:02:08.878Z,79.50
2024-05-09T11:03:08.652Z,79.50
2024-05-09T11:04:11.205Z,76.36
2024-05-09T11:05:08.503Z,73.47
2024-05-09T11:06:08.382Z,74.63
2024-05-09T11:07:08.738Z,74.25
2024-05-09T11:08:08.232Z,75.79
2024-05-09T11:09:08.174Z,75.15
2024-05-09T11:10:12.484Z,73.90
2024-05-09T11:11:08.919Z,75.24
2024-05-09T11:12:08.100Z,75.24
2024-05-09T11:13:07.948Z,74.57
2024-05-09T11:14:07.780Z,73.61
2024-05-09T11:15:07.863Z,74.48
2024-05-09T11:16:07.855Z,73.84
2024-05-09T11:24:42.958Z,72.74
2024-05-09T11:25:42.644Z,75.05
2024-05-09T11:26:42.633Z,74.61
2024-05-09T11:27:42.536Z,74.51
2024-05-09T11:28:42.417Z,74.13
2024-05-09T11:29:42.346Z,74.13
2024-05-09T11:30:42.375Z,71.81
2024-05-09T11:31:42.379Z,72.91
2024-05-09T11:32:42.210Z,70.95
2024-05-09T11:33:42.314Z,71.47
2024-05-09T11:34:42.305Z,72.11
2024-05-09T11:35:42.107Z,73.49
2024-05-09T11:36:41.857Z,72.63
2024-05-09T11:37:41.750Z,71.56
2024-05-09T11:39:41.703Z,70.21
2024-05-09T11:40:41.783Z,71.41
2024-05-09T11:41:41.478Z,72.56
2024-05-09T11:42:41.476Z,72.56
2024-05-09T11:44:41.233Z,70.67
2024-05-09T11:45:41.329Z,72.63
2024-05-09T11:46:41.138Z,68.71
2024-05-09T11:47:41.726Z,68.40
2024-05-09T11:49:33.575Z,65.95
2024-05-09T11:51:56.081Z,63.34
2024-05-09T11:52:56.774Z,66.20
2024-05-09T11:54:55.803Z,67.17
2024-05-09T11:55:56.011Z,64.37
2024-05-09T11:56:55.629Z,64.56
2024-05-09T11:58:55.503Z,63.02
2024-05-09T12:02:45.358Z,61.76
2024-05-09T12:05:45.538Z,60.34
2024-05-09T12:06:45.219Z,60.72
2024-05-09T12:08:45.250Z,63.05
2024-05-09T12:12:44.900Z,59.23
2024-05-09T12:13:44.640Z,59.66
2024-05-09T12:14:44.563Z,60.27
2024-05-09T12:15:44.634Z,59.46
2024-05-09T12:16:44.541Z,59.27
2024-05-09T12:17:46.172Z,59.84
2024-05-09T12:18:44.435Z,59.56
2024-05-09T12:19:44.303Z,59.27
2024-05-09T12:20:44.186Z,61.01
2024-05-09T12:21:44.191Z,59.07
2024-05-09T12:22:44.052Z,59.56
2024-05-09T12:23:44.195Z,58.49
2024-05-09T12:24:43.979Z,59.46
2024-05-09T12:25:43.875Z,60.01
2024-05-09T12:26:43.813Z,59.30
2024-05-09T12:27:44.620Z,59.30
2024-05-09T12:28:43.695Z,58.62
2024-05-09T12:29:44.056Z,58.45
2024-05-09T12:31:41.363Z,58.49
2024-05-09T12:32:41.391Z,58.04
2024-05-09T12:33:41.364Z,59.39
2024-05-09T12:34:41.823Z,59.20
2024-05-09T12:35:44.101Z,57.65
2024-05-09T12:36:41.077Z,57.19
2024-05-09T12:37:41.275Z,57.09
2024-05-09T12:38:40.911Z,58.51
2024-05-09T12:39:40.892Z,59.05
2024-05-09T12:40:41.147Z,56.65
2024-05-09T12:41:40.736Z,55.68
2024-05-09T12:42:43.360Z,55.49
2024-05-09T12:43:40.629Z,54.42
2024-05-09T12:44:40.556Z,54.56
2024-05-09T12:45:40.834Z,56.40
2024-05-09T12:46:40.422Z,55.53
2024-05-09T12:48:43.126Z,55.55
2024-05-09T12:49:44.373Z,54.00
2024-05-09T12:50:43.084Z,54.94
2024-05-09T12:51:42.876Z,53.59
2024-05-09T12:52:42.777Z,55.41
2024-05-09T12:53:42.724Z,55.96
2024-05-09T12:54:42.725Z,56.64
2024-05-09T12:55:48.848Z,58.22
2024-05-09T12:56:42.537Z,57.01
2024-05-09T12:57:42.578Z,56.21
2024-05-09T12:58:42.410Z,56.11
2024-05-09T12:59:42.377Z,56.52
2024-05-09T13:00:42.478Z,54.90
2024-05-09T13:01:42.322Z,52.76
2024-05-09T13:02:42.268Z,52.47
2024-05-09T13:03:42.373Z,54.13
2024-05-09T13:04:42.204Z,55.15
2024-05-09T13:05:42.295Z,54.86
2024-05-09T13:06:41.957Z,52.72
2024-05-09T13:07:42.015Z,52.31
2024-05-09T13:08:41.806Z,53.59
2024-05-09T13:09:41.793Z,51.75
2024-05-09T13:10:41.937Z,50.82
2024-05-09T13:11:41.662Z,50.31
2024-05-09T13:12:42.399Z,52.21
2024-05-09T13:13:41.554Z,53.50
2024-05-09T13:14:41.511Z,54.47
2024-05-09T13:15:41.426Z,53.08
2024-05-09T13:17:29.321Z,54.00
2024-05-09T13:18:29.493Z,53.42
2024-05-09T13:19:29.087Z,53.42
2024-05-09T13:20:33.065Z,54.03
2024-05-09T13:21:29.177Z,53.83
2024-05-09T13:22:28.834Z,53.00
2024-05-09T13:23:28.745Z,53.75
2024-05-09T13:24:28.735Z,56.40
2024-05-09T13:25:28.618Z,57.82
2024-05-09T13:26:28.576Z,57.00
2024-05-09T13:27:28.550Z,55.76
2024-05-09T13:28:28.483Z,55.76
2024-05-09T13:29:28.375Z,53.04
2024-05-09T13:30:35.781Z,54.01
2024-05-09T13:31:28.416Z,53.26
2024-05-09T13:32:29.693Z,51.29
2024-05-09T13:33:28.230Z,50.36
2024-05-09T13:34:28.092Z,51.94
2024-05-09T13:35:28.029Z,51.70
2024-05-09T13:36:28.101Z,50.14
2024-05-09T13:37:27.939Z,49.78
2024-05-09T13:38:27.837Z,50.36
2024-05-09T13:39:27.794Z,50.46
2024-05-09T13:40:33.369Z,48.32
2024-05-09T13:41:27.668Z,49.05
2024-05-09T13:42:27.607Z,49.56
2024-05-09T13:43:27.602Z,51.57
2024-05-09T13:44:27.537Z,54.90
2024-05-09T13:45:27.427Z,54.42
2024-05-09T13:46:27.404Z,54.22
2024-05-09T13:47:27.366Z,52.74
2024-05-09T13:48:27.267Z,53.03
2024-05-09T13:49:27.211Z,52.96
2024-05-09T13:50:32.904Z,53.54
2024-05-09T13:51:27.073Z,51.60
2024-05-09T13:52:27.059Z,52.84
2024-05-09T13:53:26.952Z,54.68
2024-05-09T13:54:26.895Z,54.14
2024-05-09T13:55:26.833Z,53.39
2024-05-09T13:56:26.771Z,53.70
2024-05-09T13:57:26.716Z,53.70
2024-05-09T13:58:26.677Z,55.26
2024-05-09T13:59:29.210Z,54.99
2024-05-09T14:00:37.944Z,55.53
2024-05-09T14:01:26.604Z,54.90
2024-05-09T14:02:26.562Z,56.56
2024-05-09T14:03:26.463Z,55.13
2024-05-09T14:04:27.032Z,55.13
2024-05-09T14:05:26.373Z,55.55
2024-05-09T14:07:26.134Z,56.68
2024-05-09T14:08:26.050Z,56.20
2024-05-09T14:09:25.986Z,58.01
2024-05-09T14:10:30.762Z,58.75
2024-05-09T14:11:25.909Z,59.01
2024-05-09T14:12:25.787Z,59.95
2024-05-09T14:13:25.861Z,62.18
2024-05-09T14:14:25.670Z,60.30
2024-05-09T14:15:25.628Z,60.82
2024-05-09T14:16:25.621Z,59.23
2024-05-09T14:17:25.580Z,57.56
2024-05-09T14:18:25.462Z,59.11
2024-05-09T14:20:31.087Z,59.05
2024-05-09T14:21:25.202Z,58.89
2024-05-09T14:24:07.564Z,64.08
2024-05-09T14:25:07.546Z,63.85
2024-05-09T14:26:49.927Z,62.21
2024-05-09T14:27:49.921Z,63.98
2024-05-09T14:29:49.724Z,59.84
2024-05-09T14:30:49.922Z,57.33
2024-05-09T14:31:49.725Z,57.53
2024-05-09T14:32:49.672Z,59.81
2024-05-09T14:33:49.648Z,56.83
2024-05-09T14:34:49.544Z,57.67
2024-05-09T14:35:49.351Z,55.53
2024-05-09T14:36:49.285Z,55.27
2024-05-09T14:37:49.199Z,55.65
2024-05-09T14:38:49.169Z,56.56
2024-05-09T14:39:49.108Z,54.66
2024-05-09T14:40:49.198Z,54.92
2024-05-09T14:41:48.939Z,55.11
2024-05-09T14:42:48.970Z,55.57
2024-05-09T14:43:48.808Z,55.32
2024-05-09T14:44:48.753Z,56.20
2024-05-09T14:45:48.736Z,56.71
2024-05-09T14:46:48.659Z,55.77
2024-05-09T14:47:48.693Z,55.69
2024-05-09T14:48:48.800Z,54.94
2024-05-09T14:49:48.481Z,56.70
2024-05-09T14:50:48.364Z,55.41
2024-05-09T14:51:48.602Z,56.05
2024-05-09T14:52:48.234Z,56.79
2024-05-09T14:53:48.181Z,56.89
2024-05-09T14:54:51.367Z,56.11
2024-05-09T14:55:48.500Z,56.98
2024-05-09T14:56:47.979Z,55.43
2024-05-09T14:57:47.999Z,56.37
2024-05-09T14:58:48.048Z,56.25
2024-05-09T14:59:47.991Z,57.84
2024-05-09T15:00:50.877Z,58.92
2024-05-09T15:01:47.747Z,60.17
2024-05-09T15:02:48.080Z,60.24
2024-05-09T15:03:47.615Z,59.52
2024-05-09T15:04:47.698Z,57.73
2024-05-09T15:05:47.544Z,55.04
2024-05-09T15:06:47.376Z,55.24
2024-05-09T15:07:47.291Z,55.14
2024-05-09T15:08:47.263Z,53.88
2024-05-09T15:09:47.197Z,53.73
2024-05-09T15:10:47.530Z,53.73
2024-05-09T15:11:47.103Z,55.89
2024-05-09T15:12:46.976Z,54.24
2024-05-09T15:13:46.884Z,55.57
2024-05-09T15:14:46.819Z,54.74
2024-05-09T15:15:46.915Z,55.30
2024-05-09T15:16:46.690Z,57.08
2024-05-09T15:17:46.704Z,57.73
2024-05-09T15:18:46.688Z,58.86
2024-05-09T15:19:46.714Z,59.31
2024-05-09T15:20:46.599Z,61.15
2024-05-09T15:21:46.379Z,63.85
2024-05-09T15:22:46.295Z,65.85
2024-05-09T15:23:46.236Z,66.02
2024-05-09T15:24:46.255Z,61.79
2024-05-09T15:25:46.097Z,62.13
2024-05-09T15:26:46.026Z,59.48
2024-05-09T15:27:45.964Z,55.14
2024-05-09T15:28:45.891Z,53.08
2024-05-09T15:29:45.838Z,53.53
2024-05-09T15:30:58.538Z,55.04
2024-05-09T15:31:45.754Z,56.36
2024-05-09T15:32:45.768Z,55.49
2024-05-09T15:33:45.701Z,55.10
2024-05-09T15:34:46.025Z,56.75
2024-05-09T15:35:45.436Z,54.90
2024-05-09T15:36:45.402Z,52.40
2024-05-09T15:37:45.304Z,52.72
2024-05-09T15:38:45.264Z,51.62
2024-05-09T15:39:45.217Z,51.01
2024-05-09T15:40:45.221Z,52.91
2024-05-09T15:41:45.050Z,52.76
2024-05-09T15:43:45.116Z,52.23
2024-05-09T15:44:44.855Z,50.87
2024-05-09T15:45:44.827Z,50.85
2024-05-09T15:46:44.927Z,53.91
2024-05-09T15:47:44.745Z,53.61
2024-05-09T15:48:45.009Z,53.97
2024-05-09T15:49:44.726Z,53.39
2024-05-09T15:50:44.929Z,52.40
2024-05-09T15:51:44.429Z,53.17
2024-05-09T15:52:44.341Z,54.50
2024-05-09T15:53:44.284Z,55.21
2024-05-09T15:54:44.235Z,56.15
2024-05-09T15:55:44.158Z,57.87
2024-05-09T15:56:44.087Z,58.04
2024-05-09T15:57:44.295Z,58.65
2024-05-09T15:58:43.960Z,57.12
2024-05-09T15:59:43.886Z,57.32